Circleville, Ohio
Current Conditions -  °F | °C
As of 12:54 PM on Saturday 25 Oct 2014 (Local Time) from KRZT Reporting Station
Broken Clouds Broken Clouds  
Wind Chill: 64°   Ceiling: 3400
Heat Index: 64°   Visibility: 10mi
Dew Point: 50°   Wind: 16mph
Humidity: 59%   Direction: 240°WSW
Pressure: 29.94"   Gusts: 20mph
Location:  39.6°N, 82.94°W
Report Text: KRZT 251654Z AUTO 24014G17KT 10SM SCT026 BKN034 18/10 A2994 RMK AO2
Loading
Personal Weather Stations






























Interactive Weather Map
Tropical Storm Tracking
New forecast layout! Learn more

10-Day Weather Forecast

Advertisements
Track Severe Weather on mobile